Time;durP1;ratioP1;P1;durP2;ratioP2;P2;SDS_P1;SDS_P2;PMS_P1;PMS_P2;Temp;Humidity;BMP_temperature;BMP_pressure;BME280_temperature;BME280_humidity;BME280_pressure;Samples;Min_cycle;Max_cycle;Signal;HPM_P1;HPM_P2
2021/01/24 00:00:31;;;;;;;11.05;6.95;;;;;;;2.22;70.88;93466.25;4941033;29;20059;-37
2021/01/24 00:02:58;;;;;;;12.27;7.68;;;;;;;2.14;71.47;93471.72;4937515;29;20056;-37
2021/01/24 00:05:25;;;;;;;11.35;7.32;;;;;;;2.27;71.19;93481.25;4938841;29;20059;-37
2021/01/24 00:07:51;;;;;;;12.18;6.75;;;;;;;2.27;70.69;93486.56;4941728;29;20062;-36
2021/01/24 00:10:18;;;;;;;9.75;6.20;;;;;;;2.03;71.57;93492.78;4938680;29;20085;-36
2021/01/24 00:12:46;;;;;;;9.00;5.95;;;;;;;2.05;71.41;93510.00;4937385;29;20062;-36
2021/01/24 00:15:13;;;;;;;10.30;6.50;;;;;;;1.83;72.00;93515.81;4937126;29;20129;-36
2021/01/24 00:17:40;;;;;;;9.48;6.50;;;;;;;1.89;72.50;93511.81;4937298;29;20134;-36
2021/01/24 00:20:08;;;;;;;9.40;6.00;;;;;;;1.67;73.30;93507.72;4943551;29;20043;-36
2021/01/24 00:22:38;;;;;;;9.90;6.07;;;;;;;1.79;72.88;93494.38;4938442;28;20072;-37
2021/01/24 00:25:05;;;;;;;6.70;4.72;;;;;;;2.03;71.67;93500.78;4949618;29;20099;-37
2021/01/24 00:27:32;;;;;;;10.00;5.90;;;;;;;2.23;70.63;93499.06;4941758;29;20080;-37
2021/01/24 00:29:58;;;;;;;8.02;5.45;;;;;;;2.27;70.75;93507.91;4950495;29;20047;-37
2021/01/24 00:32:25;;;;;;;9.27;5.95;;;;;;;2.46;70.32;93499.31;4950949;29;20055;-38
2021/01/24 00:34:52;;;;;;;9.43;5.70;;;;;;;2.35;71.37;93501.69;4963283;28;20040;-38
2021/01/24 00:37:18;;;;;;;7.85;5.15;;;;;;;2.16;71.96;93501.53;4943966;29;20056;-37
2021/01/24 00:39:44;;;;;;;10.90;6.40;;;;;;;1.76;73.53;93504.94;4957324;29;20087;-37
2021/01/24 00:42:12;;;;;;;8.30;5.80;;;;;;;1.84;73.85;93501.38;4946218;29;20111;-38
2021/01/24 00:44:38;;;;;;;8.10;5.65;;;;;;;1.62;74.87;93499.94;4972714;28;20071;-37
2021/01/24 00:47:05;;;;;;;7.60;4.97;;;;;;;1.55;75.41;93499.75;4939449;29;20052;-37
2021/01/24 00:49:33;;;;;;;9.32;5.57;;;;;;;1.51;76.05;93502.31;4963930;28;20056;-37
2021/01/24 00:51:59;;;;;;;7.22;5.25;;;;;;;1.81;75.29;93502.03;4953898;29;20047;-37
2021/01/24 00:54:26;;;;;;;8.45;5.25;;;;;;;1.64;75.62;93498.50;4981575;28;20075;-38
2021/01/24 00:56:52;;;;;;;6.50;4.75;;;;;;;1.91;74.72;93482.91;4947784;29;20062;-38
2021/01/24 00:59:19;;;;;;;6.40;4.55;;;;;;;2.01;74.89;93490.44;4962618;28;20067;-37
2021/01/24 01:01:45;;;;;;;7.57;4.47;;;;;;;2.21;74.38;93503.94;4941719;29;20071;-37
2021/01/24 01:04:11;;;;;;;7.43;4.82;;;;;;;2.30;74.50;93505.34;4956641;28;20069;-37
2021/01/24 01:06:38;;;;;;;5.97;4.43;;;;;;;2.27;74.18;93508.69;4931987;29;20051;-37
2021/01/24 01:09:04;;;;;;;7.13;4.20;;;;;;;2.03;75.10;93514.88;4958579;28;20051;-37
2021/01/24 01:11:31;;;;;;;7.50;3.80;;;;;;;1.81;75.52;93499.38;4946391;29;20133;-36
2021/01/24 01:13:57;;;;;;;5.47;3.80;;;;;;;1.63;76.43;93512.97;4945772;29;20078;-36
2021/01/24 01:16:24;;;;;;;7.80;4.53;;;;;;;1.84;75.88;93515.47;4929772;29;20112;-37
2021/01/24 01:18:50;;;;;;;6.93;4.13;;;;;;;1.83;75.39;93524.59;4944199;29;20115;-37
2021/01/24 01:21:17;;;;;;;7.05;3.83;;;;;;;1.92;74.51;93511.16;4935416;29;20178;-38
2021/01/24 01:23:43;;;;;;;6.60;3.90;;;;;;;1.95;74.05;93521.13;4960619;29;20055;-37
2021/01/24 01:26:13;;;;;;;5.85;3.65;;;;;;;1.89;73.73;93519.81;4941877;28;20094;-37
2021/01/24 01:28:39;;;;;;;5.20;3.40;;;;;;;1.90;72.58;93526.69;4953030;29;20071;-38
2021/01/24 01:31:06;;;;;;;6.70;3.80;;;;;;;1.99;71.87;93516.69;4933835;29;20099;-38
2021/01/24 01:33:32;;;;;;;4.90;3.00;;;;;;;1.93;71.08;93518.03;4946233;29;20052;-37
2021/01/24 01:35:58;;;;;;;3.92;2.70;;;;;;;1.89;70.87;93517.16;4943931;29;20052;-37
2021/01/24 01:38:25;;;;;;;4.22;2.83;;;;;;;1.83;70.54;93518.50;4939462;29;20084;-38
2021/01/24 01:40:52;;;;;;;5.75;3.10;;;;;;;1.83;70.83;93519.25;4941817;29;20066;-37
2021/01/24 01:43:21;;;;;;;5.20;3.10;;;;;;;1.73;70.95;93521.63;4951190;29;20051;-37
2021/01/24 01:45:48;;;;;;;4.85;2.92;;;;;;;1.61;70.34;93512.50;4943645;29;20079;-37
2021/01/24 01:48:16;;;;;;;4.45;3.13;;;;;;;1.66;70.58;93521.38;4957768;29;20063;-36
2021/01/24 01:50:43;;;;;;;3.88;2.55;;;;;;;1.53;69.58;93497.41;4930300;29;20052;-41
2021/01/24 01:53:10;;;;;;;3.88;2.45;;;;;;;1.59;69.97;93512.06;4944304;29;20075;-36
2021/01/24 01:55:36;;;;;;;6.30;2.40;;;;;;;1.48;70.46;93499.53;4946582;28;20052;-37
2021/01/24 01:58:03;;;;;;;5.57;2.65;;;;;;;1.57;69.78;93510.84;4942299;29;20105;-35
2021/01/24 02:00:29;;;;;;;4.40;2.47;;;;;;;1.55;69.46;93524.50;4946447;29;20058;-36
2021/01/24 02:03:07;;;;;;;4.32;2.10;;;;;;;1.60;70.31;93528.84;4960833;29;20051;-36
2021/01/24 02:06:08;;;;;;;4.00;2.20;;;;;;;1.50;69.75;93539.94;4943169;29;20402;-36
2021/01/24 02:08:53;;;;;;;3.85;1.73;;;;;;;1.54;70.18;93530.16;4947787;28;20054;-36
2021/01/24 02:11:33;;;;;;;3.90;1.70;;;;;;;1.53;69.84;93533.97;4950307;29;20542;-36
2021/01/24 02:14:35;;;;;;;2.85;1.73;;;;;;;1.77;69.40;93531.25;4963406;28;20062;-36
2021/01/24 02:17:05;;;;;;;2.95;1.50;;;;;;;1.83;68.80;93537.16;4941446;29;20055;-37
2021/01/24 02:19:53;;;;;;;4.20;1.70;;;;;;;1.89;68.74;93549.16;4949237;29;20047;-36
2021/01/24 02:22:21;;;;;;;3.03;1.60;;;;;;;1.73;69.18;93542.94;4950319;28;20257;-36
2021/01/24 02:25:02;;;;;;;2.20;1.20;;;;;;;1.72;69.32;93541.38;4951334;29;20126;-37
2021/01/24 02:27:44;;;;;;;2.75;1.20;;;;;;;1.80;69.23;93551.16;4943112;29;20119;-37
2021/01/24 02:30:22;;;;;;;3.10;1.45;;;;;;;1.80;69.51;93540.47;4955810;29;20484;-37
2021/01/24 02:33:11;;;;;;;1.52;1.00;;;;;;;1.75;69.84;93544.13;4937587;29;20047;-36
2021/01/24 02:35:43;;;;;;;2.25;1.10;;;;;;;1.80;69.89;93541.25;4961070;28;20136;-36
2021/01/24 02:38:10;;;;;;;1.85;1.00;;;;;;;1.71;70.14;93545.16;4955537;28;20060;-36
2021/01/24 02:40:39;;;;;;;2.05;1.10;;;;;;;1.78;70.46;93545.38;4958792;29;20501;-36
2021/01/24 02:43:11;;;;;;;1.42;0.95;;;;;;;1.69;70.70;93542.03;4953029;29;20043;-37
2021/01/24 02:45:41;;;;;;;1.45;0.98;;;;;;;1.24;71.28;93489.66;4956791;29;20091;-37
2021/01/24 02:48:09;;;;;;;1.33;0.90;;;;;;;1.59;71.43;93525.41;4979651;23;20055;-36
2021/01/24 02:50:36;;;;;;;1.17;0.80;;;;;;;1.66;71.76;93543.50;4943987;28;20051;-37
2021/01/24 02:53:04;;;;;;;1.15;0.90;;;;;;;1.73;71.44;93548.28;4956775;28;20047;-36
2021/01/24 02:55:31;;;;;;;1.50;0.77;;;;;;;1.69;72.06;93547.38;4951820;29;20051;-37
2021/01/24 02:57:59;;;;;;;1.35;0.90;;;;;;;1.67;72.48;93531.72;4971909;28;20055;-36
2021/01/24 03:00:26;;;;;;;0.80;0.68;;;;;;;1.73;72.61;93550.94;4955562;28;20098;-36
2021/01/24 03:02:52;;;;;;;1.08;0.73;;;;;;;1.73;72.79;93549.03;4956648;28;20075;-36
2021/01/24 03:05:19;;;;;;;1.05;0.70;;;;;;;1.64;72.87;93540.38;4952999;28;20079;-36
2021/01/24 03:07:47;;;;;;;1.75;0.93;;;;;;;1.74;72.66;93544.50;4959423;28;20055;-36
2021/01/24 03:10:15;;;;;;;1.35;0.82;;;;;;;1.61;73.42;93547.16;4959916;28;20504;-36
2021/01/24 03:13:21;;;;;;;0.80;0.70;;;;;;;1.79;72.57;93560.28;4945163;29;20083;-37
2021/01/24 03:15:49;;;;;;;1.25;0.85;;;;;;;1.53;73.05;93540.06;4957075;29;20051;-36
2021/01/24 03:18:20;;;;;;;1.77;0.85;;;;;;;1.63;73.09;93563.59;4957866;28;20043;-36
2021/01/24 03:20:50;;;;;;;1.20;0.73;;;;;;;1.53;73.10;93560.59;4949670;28;20083;-36
2021/01/24 03:23:16;;;;;;;0.70;0.52;;;;;;;1.52;73.55;93562.47;4968873;28;20070;-36
2021/01/24 03:25:43;;;;;;;1.80;0.88;;;;;;;1.50;73.46;93566.59;4965915;28;20048;-37
2021/01/24 03:28:10;;;;;;;0.65;0.50;;;;;;;1.51;73.62;93573.47;4952720;28;20065;-36
2021/01/24 03:30:37;;;;;;;0.85;0.70;;;;;;;1.49;73.66;93565.78;4954064;28;20098;-36
2021/01/24 03:33:05;;;;;;;0.70;0.60;;;;;;;1.53;73.38;93582.69;4955332;28;20695;-36
2021/01/24 03:35:32;;;;;;;1.15;0.70;;;;;;;1.39;73.53;93561.69;4955200;28;20114;-36
2021/01/24 03:37:58;;;;;;;1.10;0.80;;;;;;;1.47;73.77;93586.69;4966494;28;20048;-36
2021/01/24 03:40:25;;;;;;;0.55;0.55;;;;;;;1.48;73.77;93590.13;4953371;29;20425;-36
2021/01/24 03:42:51;;;;;;;0.98;0.65;;;;;;;1.49;73.43;93570.34;4955210;28;20483;-36
2021/01/24 03:45:18;;;;;;;1.23;0.75;;;;;;;1.69;72.93;93580.16;4954785;28;20051;-37
2021/01/24 03:47:45;;;;;;;1.17;0.82;;;;;;;1.67;73.13;93586.91;4947633;28;20490;-37
2021/01/24 03:50:12;;;;;;;0.95;0.70;;;;;;;1.66;73.52;93596.81;4950276;29;20097;-36
2021/01/24 03:52:38;;;;;;;1.95;0.80;;;;;;;1.57;74.16;93596.91;4954157;28;20130;-36
2021/01/24 03:55:05;;;;;;;1.02;0.80;;;;;;;1.61;73.43;93594.34;4954534;28;20051;-36
2021/01/24 03:57:32;;;;;;;1.65;0.90;;;;;;;1.57;73.05;93596.13;4950862;28;20069;-36
2021/01/24 03:59:59;;;;;;;0.93;0.73;;;;;;;1.69;72.83;93614.00;4948805;29;20090;-36
2021/01/24 04:02:25;;;;;;;1.42;0.70;;;;;;;1.58;72.69;93616.34;4954034;28;20579;-36
2021/01/24 04:04:51;;;;;;;0.95;0.70;;;;;;;1.62;72.21;93617.22;4953493;28;20047;-37
2021/01/24 04:07:18;;;;;;;0.70;0.55;;;;;;;1.60;72.24;93606.91;4949204;28;20055;-36
2021/01/24 04:09:44;;;;;;;0.60;0.60;;;;;;;1.52;72.17;93613.09;4948210;29;20075;-36
2021/01/24 04:12:10;;;;;;;0.60;0.60;;;;;;;1.69;71.88;93616.66;4954436;28;20083;-36
2021/01/24 04:14:37;;;;;;;0.50;0.50;;;;;;;1.71;70.78;93619.78;4953515;29;20089;-36
2021/01/24 04:17:04;;;;;;;0.73;0.70;;;;;;;1.63;70.91;93619.56;4952901;28;20047;-36
2021/01/24 04:19:32;;;;;;;1.20;0.70;;;;;;;1.48;71.16;93596.22;4940946;29;20414;-35
2021/01/24 04:21:59;;;;;;;0.63;0.50;;;;;;;1.68;70.55;93609.78;4953743;28;20043;-35
2021/01/24 04:24:25;;;;;;;2.33;0.60;;;;;;;1.61;70.28;93616.44;4954647;28;20059;-34
2021/01/24 04:26:52;;;;;;;1.92;0.70;;;;;;;1.61;70.32;93616.44;4953799;28;20082;-35
2021/01/24 04:29:19;;;;;;;0.70;0.50;;;;;;;1.67;70.12;93632.22;4953048;28;20051;-35
2021/01/24 04:31:45;;;;;;;0.50;0.50;;;;;;;1.58;69.59;93632.31;4954203;28;20075;-35
2021/01/24 04:34:12;;;;;;;1.30;0.50;;;;;;;1.59;69.58;93632.00;4957997;28;20074;-35
2021/01/24 04:36:39;;;;;;;0.98;0.60;;;;;;;1.67;69.19;93656.22;4961611;28;20051;-36
2021/01/24 04:39:06;;;;;;;0.88;0.60;;;;;;;1.60;69.61;93654.88;4972291;28;20054;-35
2021/01/24 04:41:36;;;;;;;0.50;0.50;;;;;;;1.61;69.45;93659.09;4964150;28;20065;-35
2021/01/24 04:44:06;;;;;;;0.52;0.50;;;;;;;1.49;69.80;93656.41;4952958;28;20137;-36
2021/01/24 04:46:36;;;;;;;0.70;0.70;;;;;;;1.46;69.99;93662.38;4955316;28;20166;-36
2021/01/24 04:49:04;;;;;;;0.60;0.60;;;;;;;1.56;69.69;93671.84;4953269;28;20058;-37
2021/01/24 04:51:30;;;;;;;0.75;0.63;;;;;;;1.55;69.66;93675.63;4955009;28;20126;-35
2021/01/24 04:53:58;;;;;;;1.27;0.60;;;;;;;1.46;70.06;93677.59;4955837;28;20142;-35
2021/01/24 04:56:25;;;;;;;0.73;0.52;;;;;;;1.48;69.83;93672.72;4953935;28;20083;-36
2021/01/24 04:58:54;;;;;;;0.50;0.50;;;;;;;1.36;69.64;93689.44;4940215;29;20066;-36
2021/01/24 05:01:23;;;;;;;0.55;0.52;;;;;;;1.38;69.79;93681.91;4953350;28;20058;-36
2021/01/24 05:03:50;;;;;;;0.77;0.60;;;;;;;1.42;69.36;93698.03;4954344;28;20134;-36
2021/01/24 05:06:16;;;;;;;0.73;0.50;;;;;;;1.28;69.63;93693.00;4947597;28;20111;-36
2021/01/24 05:08:44;;;;;;;0.70;0.50;;;;;;;1.25;69.92;93698.97;4956914;28;20070;-37
2021/01/24 05:11:13;;;;;;;0.85;0.55;;;;;;;1.04;69.92;93691.81;4956233;28;20106;-36
2021/01/24 05:13:40;;;;;;;0.95;0.50;;;;;;;1.13;69.57;93705.03;4952579;28;20051;-36
2021/01/24 05:16:07;;;;;;;1.15;0.55;;;;;;;1.10;69.18;93687.81;4953090;28;20070;-35
2021/01/24 05:18:34;;;;;;;0.82;0.45;;;;;;;1.03;69.02;93708.88;4952354;28;20065;-35
2021/01/24 05:21:03;;;;;;;0.80;0.60;;;;;;;1.15;68.40;93724.91;4947740;28;20059;-35
2021/01/24 05:23:29;;;;;;;0.73;0.60;;;;;;;1.12;68.82;93714.91;4961220;28;20111;-35
2021/01/24 05:25:56;;;;;;;1.75;0.65;;;;;;;1.04;68.71;93726.41;4961079;28;20082;-36
2021/01/24 05:28:26;;;;;;;2.15;0.47;;;;;;;1.02;68.50;93725.94;4952252;28;20051;-36
2021/01/24 05:31:04;;;;;;;0.50;0.50;;;;;;;1.02;68.42;93739.25;4959213;28;20087;-36
2021/01/24 05:33:31;;;;;;;0.98;0.63;;;;;;;0.98;68.65;93754.34;4967112;28;20047;-36
2021/01/24 05:35:58;;;;;;;1.10;0.60;;;;;;;0.90;68.77;93755.94;4952447;28;20083;-36
2021/01/24 05:38:32;;;;;;;0.65;0.60;;;;;;;0.85;69.27;93750.81;4953666;28;20162;-36
2021/01/24 05:41:01;;;;;;;0.93;0.70;;;;;;;0.69;69.57;93745.28;4953180;28;20386;-36
2021/01/24 05:43:34;;;;;;;0.60;0.50;;;;;;;0.85;69.54;93774.00;4949411;28;20127;-36
2021/01/24 05:46:00;;;;;;;0.80;0.60;;;;;;;0.72;70.12;93767.81;4949047;29;20051;-36
2021/01/24 05:48:27;;;;;;;0.65;0.60;;;;;;;0.84;69.65;93775.88;4953237;28;20075;-35
2021/01/24 05:50:55;;;;;;;0.60;0.60;;;;;;;0.82;69.32;93794.06;4951749;28;20501;-36
2021/01/24 05:53:22;;;;;;;0.93;0.60;;;;;;;0.74;69.42;93791.44;4956483;28;20130;-36
2021/01/24 05:55:49;;;;;;;1.02;0.60;;;;;;;0.56;69.25;93791.56;4956595;28;20489;-36
2021/01/24 05:58:24;;;;;;;0.90;0.70;;;;;;;0.69;69.21;93805.72;4955745;28;20106;-35
2021/01/24 06:00:52;;;;;;;0.75;0.60;;;;;;;0.61;68.80;93817.19;4953779;28;20078;-36
2021/01/24 06:03:20;;;;;;;0.52;0.50;;;;;;;0.67;68.57;93819.34;4957524;28;20051;-36
2021/01/24 06:05:46;;;;;;;1.05;0.70;;;;;;;0.59;68.74;93809.53;4956476;28;20058;-36
2021/01/24 06:08:15;;;;;;;0.90;0.68;;;;;;;0.69;67.93;93817.16;4948158;28;20135;-36
2021/01/24 06:10:42;;;;;;;0.60;0.60;;;;;;;0.52;68.56;93816.44;4965524;28;20047;-36
2021/01/24 06:13:12;;;;;;;0.93;0.57;;;;;;;0.44;68.68;93816.16;4957946;28;20460;-36
2021/01/24 06:15:41;;;;;;;0.98;0.80;;;;;;;0.41;68.77;93822.13;4948424;28;20505;-35
2021/01/24 06:18:14;;;;;;;0.70;0.60;;;;;;;0.44;68.54;93844.66;4952982;28;20413;-35
2021/01/24 06:20:49;;;;;;;1.38;0.70;;;;;;;0.45;68.55;93843.53;4951032;29;20135;-35
2021/01/24 06:23:26;;;;;;;0.68;0.60;;;;;;;0.46;68.34;93821.97;4958300;28;20150;-35
2021/01/24 06:26:02;;;;;;;0.57;0.57;;;;;;;0.44;68.07;93839.34;4957089;28;20473;-35
2021/01/24 06:28:32;;;;;;;1.00;0.65;;;;;;;0.40;68.44;93843.75;4956609;28;20062;-36
2021/01/24 06:30:58;;;;;;;0.95;0.60;;;;;;;0.42;68.43;93849.50;4959667;28;20469;-36
2021/01/24 06:33:25;;;;;;;0.80;0.68;;;;;;;0.35;68.05;93841.25;4968547;28;20054;-36
2021/01/24 06:36:00;;;;;;;0.85;0.60;;;;;;;0.33;67.43;93859.41;4959802;28;20055;-35
2021/01/24 06:38:29;;;;;;;1.02;0.60;;;;;;;0.33;67.00;93873.50;4945079;28;20160;-37
2021/01/24 06:40:56;;;;;;;1.30;0.70;;;;;;;0.29;67.09;93877.09;4956118;28;20051;-36
2021/01/24 06:43:40;;;;;;;0.65;0.50;;;;;;;0.30;66.91;93874.13;4958069;28;20047;-36
2021/01/24 06:46:07;;;;;;;;;;;;;;;0.39;66.99;93876.75;4963876;28;20055;-36
2021/01/24 06:48:42;;;;;;;1.25;0.70;;;;;;;0.42;66.79;93886.75;4974535;28;19949;-35
2021/01/24 06:51:30;;;;;;;1.45;0.60;;;;;;;0.39;67.15;93887.38;4956304;28;20445;-36
2021/01/24 06:53:57;;;;;;;1.38;0.75;;;;;;;0.40;67.44;93903.03;4956795;28;20074;-36
2021/01/24 06:56:26;;;;;;;1.45;0.73;;;;;;;0.63;66.95;93903.59;4956119;28;20517;-35
2021/01/24 06:58:53;;;;;;;1.05;0.70;;;;;;;0.65;66.27;93900.59;4957554;28;20062;-36
2021/01/24 07:01:32;;;;;;;1.05;0.70;;;;;;;0.65;66.64;93905.91;4964738;28;20079;-36
2021/01/24 07:04:17;;;;;;;1.08;0.90;;;;;;;0.63;67.34;93914.22;4962362;28;20062;-36
2021/01/24 07:06:52;;;;;;;0.85;0.80;;;;;;;0.52;67.83;93907.72;4956020;28;20075;-36
2021/01/24 07:09:25;;;;;;;1.00;0.93;;;;;;;0.60;67.81;93920.19;4949951;29;20512;-36
2021/01/24 07:11:58;;;;;;;1.20;0.80;;;;;;;0.58;67.84;93911.72;4956576;28;20504;-36
2021/01/24 07:14:33;;;;;;;;;;;;;;;0.51;68.05;93923.97;4956627;28;20059;-35
2021/01/24 07:17:00;;;;;;;1.65;1.20;;;;;;;0.45;68.85;93939.31;4954332;28;20329;-37
2021/01/24 07:19:30;;;;;;;0.93;0.80;;;;;;;0.58;67.98;93935.69;4949287;28;20067;-35
2021/01/24 07:21:59;;;;;;;0.90;0.80;;;;;;;0.48;67.89;93938.69;4949811;29;20051;-36
2021/01/24 07:24:28;;;;;;;1.05;0.82;;;;;;;0.27;69.19;93937.81;4970342;28;20055;-34
2021/01/24 07:26:59;;;;;;;0.98;0.70;;;;;;;0.30;68.47;93951.25;4955022;28;20074;-36
2021/01/24 07:29:27;;;;;;;1.23;0.80;;;;;;;0.37;67.11;93943.56;4956974;29;20055;-36
2021/01/24 07:31:54;;;;;;;1.35;0.90;;;;;;;0.33;66.22;93949.84;4956425;28;20051;-35
2021/01/24 07:34:22;;;;;;;0.60;0.60;;;;;;;0.50;65.27;93970.31;4956457;28;20047;-37
2021/01/24 07:36:50;;;;;;;2.67;0.90;;;;;;;0.46;64.56;93957.66;4951278;28;20087;-36
2021/01/24 07:39:18;;;;;;;0.85;0.65;;;;;;;0.78;63.85;93966.19;4945849;29;20098;-36
2021/01/24 07:41:50;;;;;;;1.13;0.80;;;;;;;0.85;63.80;93963.81;4956210;28;20417;-36
2021/01/24 07:44:18;;;;;;;0.93;0.80;;;;;;;0.92;63.79;93971.28;4956049;28;20066;-37
2021/01/24 07:46:45;;;;;;;2.22;1.02;;;;;;;0.69;65.37;93978.72;4946279;28;20460;-36
2021/01/24 07:49:14;;;;;;;1.50;0.98;;;;;;;0.98;64.78;93982.56;4956940;28;20055;-38
2021/01/24 07:51:42;;;;;;;1.63;1.00;;;;;;;0.97;65.30;93979.09;4973469;28;20061;-36
2021/01/24 07:54:10;;;;;;;1.10;0.80;;;;;;;0.94;64.80;93977.06;4975282;28;20082;-36
2021/01/24 07:56:37;;;;;;;1.48;1.00;;;;;;;1.05;64.87;93983.63;4962291;28;20076;-37
2021/01/24 07:59:04;;;;;;;2.78;1.25;;;;;;;0.69;65.53;93976.84;4951756;28;20048;-37
2021/01/24 08:01:30;;;;;;;2.38;1.00;;;;;;;0.84;65.66;93988.06;4954244;28;20054;-36
2021/01/24 08:04:00;;;;;;;1.67;0.93;;;;;;;0.84;65.45;93988.06;4955722;28;20047;-36
2021/01/24 08:06:27;;;;;;;1.95;1.00;;;;;;;0.80;64.78;93993.25;4949744;28;20083;-38
2021/01/24 08:08:53;;;;;;;1.73;0.90;;;;;;;0.61;64.12;93984.84;4957216;28;20055;-36
2021/01/24 08:11:20;;;;;;;1.70;0.80;;;;;;;0.69;64.82;93998.13;4956514;28;20560;-37
2021/01/24 08:13:47;;;;;;;1.20;0.80;;;;;;;0.67;63.76;94028.81;4959753;28;20121;-36
2021/01/24 08:16:17;;;;;;;1.67;1.05;;;;;;;0.64;63.21;94006.28;4959305;28;20584;-37
2021/01/24 08:18:46;;;;;;;1.42;1.00;;;;;;;0.63;63.43;93996.72;4948705;29;20062;-37
2021/01/24 08:21:15;;;;;;;1.30;0.90;;;;;;;0.74;63.04;94004.38;4956657;28;20133;-37
2021/01/24 08:23:46;;;;;;;2.08;1.10;;;;;;;0.66;63.30;93992.66;4961819;29;20047;-38
2021/01/24 08:26:13;;;;;;;1.02;0.77;;;;;;;0.93;62.36;94002.13;4961373;28;20078;-38
2021/01/24 08:28:41;;;;;;;1.48;0.85;;;;;;;0.77;62.01;94015.16;4970075;28;20051;-37
2021/01/24 08:31:08;;;;;;;1.02;0.70;;;;;;;0.63;62.13;94004.72;4957458;28;20079;-37
2021/01/24 08:33:36;;;;;;;1.27;0.82;;;;;;;0.53;62.72;94015.69;4959115;28;20051;-37
2021/01/24 08:36:29;;;;;;;0.70;0.70;;;;;;;0.73;62.07;94016.13;4955975;29;20051;-37
2021/01/24 08:39:01;;;;;;;2.53;1.10;;;;;;;0.60;61.76;93994.72;4954101;28;20070;-38
2021/01/24 08:41:33;;;;;;;2.22;0.93;;;;;;;0.83;60.92;94013.13;4953831;29;20062;-37
2021/01/24 08:44:12;;;;;;;0.98;0.80;;;;;;;0.68;60.81;94007.22;4954351;28;20066;-38
2021/01/24 08:46:44;;;;;;;0.88;0.80;;;;;;;0.65;61.42;94028.34;4954320;28;20047;-37
2021/01/24 08:49:13;;;;;;;2.15;1.00;;;;;;;0.78;61.18;94027.41;4950069;28;20051;-37
2021/01/24 08:51:54;;;;;;;2.88;1.38;;;;;;;0.78;61.46;94022.09;4947733;29;20134;-37
2021/01/24 08:54:25;;;;;;;1.67;1.00;;;;;;;0.77;62.13;94022.38;4953964;28;20052;-38
2021/01/24 08:57:05;;;;;;;1.38;0.95;;;;;;;0.86;61.43;94053.22;4952802;28;20051;-37
2021/01/24 08:59:33;;;;;;;1.60;0.90;;;;;;;0.83;62.72;94040.53;4969889;28;20055;-38
2021/01/24 09:02:00;;;;;;;2.25;1.25;;;;;;;0.86;63.29;94047.09;4956772;28;20070;-37
2021/01/24 09:04:29;;;;;;;1.77;0.80;;;;;;;0.62;63.73;94035.09;4953523;28;20055;-40
2021/01/24 09:06:59;;;;;;;1.70;1.00;;;;;;;0.81;63.30;94049.94;4955463;28;20055;-39
2021/01/24 09:09:28;;;;;;;1.15;0.80;;;;;;;1.16;62.78;94047.97;4951994;28;20055;-38
2021/01/24 09:11:55;;;;;;;1.35;1.00;;;;;;;1.07;63.08;94061.31;4949225;28;20070;-38
2021/01/24 09:14:23;;;;;;;1.30;1.00;;;;;;;0.97;63.26;94056.31;4950984;28;20086;-38
2021/01/24 09:17:00;;;;;;;1.27;1.00;;;;;;;0.83;59.61;94064.50;4953103;28;20047;-37
2021/01/24 09:19:28;;;;;;;1.40;1.00;;;;;;;0.72;57.80;94062.50;4944036;29;20076;-38
2021/01/24 09:21:55;;;;;;;1.83;1.17;;;;;;;0.58;56.98;94052.78;4953956;28;20043;-38
2021/01/24 09:24:22;;;;;;;3.00;1.10;;;;;;;0.57;56.73;94063.75;4953411;28;20047;-38
2021/01/24 09:26:49;;;;;;;1.83;1.10;;;;;;;0.87;57.07;94061.97;4948478;28;20063;-39
2021/01/24 09:29:16;;;;;;;3.38;1.27;;;;;;;1.00;56.79;94076.97;4953800;28;20071;-40
2021/01/24 09:31:42;;;;;;;2.75;1.23;;;;;;;1.02;56.14;94100.66;4952227;29;20050;-38
2021/01/24 09:34:09;;;;;;;4.78;1.65;;;;;;;0.75;54.89;94078.59;4952345;28;20110;-38
2021/01/24 09:36:35;;;;;;;3.15;1.35;;;;;;;0.62;54.70;94090.22;4967247;28;20051;-39
2021/01/24 09:39:04;;;;;;;2.38;1.30;;;;;;;0.56;54.17;94096.78;4954489;28;20098;-37
2021/01/24 09:41:30;;;;;;;2.33;1.33;;;;;;;0.46;54.88;94093.34;4949845;28;20051;-40
2021/01/24 09:43:57;;;;;;;2.58;1.40;;;;;;;0.36;54.80;94100.84;4962033;28;20062;-39
2021/01/24 09:46:23;;;;;;;2.20;1.27;;;;;;;0.52;53.83;94086.00;4957510;28;20047;-39
2021/01/24 09:48:50;;;;;;;1.85;1.23;;;;;;;0.78;54.22;94101.94;4957403;28;20043;-38
2021/01/24 09:51:16;;;;;;;3.35;1.40;;;;;;;0.75;54.23;94094.56;4952369;29;20576;-38
2021/01/24 09:53:47;;;;;;;1.60;1.20;;;;;;;0.52;53.61;94070.03;4953181;28;20497;-39
2021/01/24 09:56:14;;;;;;;3.40;1.27;;;;;;;0.55;54.47;94100.53;4950209;28;20063;-37
2021/01/24 09:58:41;;;;;;;2.35;1.50;;;;;;;0.52;53.96;94093.97;4948534;28;20461;-38
2021/01/24 10:01:07;;;;;;;2.15;1.20;;;;;;;0.69;53.51;94131.22;4952689;28;20422;-38
2021/01/24 10:03:34;;;;;;;2.70;1.48;;;;;;;0.76;52.63;94108.66;4952115;28;20066;-39
2021/01/24 10:06:03;;;;;;;2.55;1.25;;;;;;;0.61;52.43;94099.28;4903510;29;20071;-39
2021/01/24 10:08:29;;;;;;;2.35;1.27;;;;;;;0.73;52.18;94119.94;4954424;28;20103;-38
2021/01/24 10:10:56;;;;;;;3.92;1.15;;;;;;;0.73;51.79;94106.63;4957999;28;20087;-38
2021/01/24 10:13:22;;;;;;;2.42;1.38;;;;;;;0.72;52.22;94102.41;4954173;28;20116;-38
2021/01/24 10:15:51;;;;;;;3.00;1.50;;;;;;;0.93;54.07;94114.75;4955361;29;20071;-38
2021/01/24 10:18:19;;;;;;;2.70;1.40;;;;;;;1.07;52.08;94106.59;4954176;28;20058;-38
2021/01/24 10:20:46;;;;;;;2.35;1.38;;;;;;;0.98;50.61;94116.47;4951719;28;20079;-38
2021/01/24 10:23:13;;;;;;;1.75;1.25;;;;;;;1.16;54.79;94122.53;4961067;28;20043;-38
2021/01/24 10:25:39;;;;;;;3.10;1.67;;;;;;;1.06;51.87;94118.31;4960141;29;20062;-39
2021/01/24 10:28:06;;;;;;;2.33;1.27;;;;;;;0.91;51.32;94097.50;4954345;28;20107;-39
2021/01/24 10:30:33;;;;;;;2.60;1.60;;;;;;;0.86;52.34;94117.09;4954405;28;20077;-39
2021/01/24 10:32:59;;;;;;;2.70;1.50;;;;;;;1.03;51.23;94116.28;4956661;28;20047;-38
2021/01/24 10:35:26;;;;;;;1.38;1.02;;;;;;;0.77;50.29;94102.25;4955310;28;20073;-38
2021/01/24 10:37:52;;;;;;;2.80;1.60;;;;;;;0.68;51.41;94118.19;4959720;28;20055;-38
2021/01/24 10:40:19;;;;;;;3.08;1.30;;;;;;;0.86;50.76;94117.09;4963181;28;20541;-39
2021/01/24 10:42:45;;;;;;;2.75;1.50;;;;;;;1.02;50.61;94116.63;4953690;28;20511;-38
2021/01/24 10:45:12;;;;;;;5.25;1.70;;;;;;;0.79;50.88;94127.44;4931178;28;20063;-39
2021/01/24 10:47:39;;;;;;;3.50;1.55;;;;;;;0.81;50.71;94125.25;4970966;28;20050;-39
2021/01/24 10:50:08;;;;;;;2.25;1.40;;;;;;;0.87;51.27;94125.88;4951490;28;20040;-40
2021/01/24 10:52:35;;;;;;;3.20;1.40;;;;;;;1.12;51.07;94110.97;4967543;28;20098;-38
2021/01/24 10:55:02;;;;;;;2.47;1.50;;;;;;;1.24;50.45;94123.63;4959710;28;20651;-39
2021/01/24 10:57:29;;;;;;;4.40;1.77;;;;;;;1.37;49.72;94106.69;4954638;28;20047;-38
2021/01/24 10:59:56;;;;;;;2.08;1.40;;;;;;;1.34;49.15;94102.75;4955928;28;20134;-39
2021/01/24 11:02:23;;;;;;;3.55;1.60;;;;;;;1.13;50.22;94107.19;4962902;28;20070;-41
2021/01/24 11:04:50;;;;;;;4.00;1.58;;;;;;;1.15;50.52;94111.09;4974270;28;20588;-38
2021/01/24 11:07:17;;;;;;;2.45;1.33;;;;;;;1.01;49.92;94099.06;4958589;28;20405;-37
2021/01/24 11:09:45;;;;;;;4.80;1.58;;;;;;;1.05;49.45;94097.34;4918849;28;20035;-38
2021/01/24 11:12:12;;;;;;;4.07;1.40;;;;;;;1.24;49.69;94102.31;4951380;28;20047;-38
2021/01/24 11:14:39;;;;;;;3.67;1.70;;;;;;;1.26;49.05;94094.78;4951437;28;20109;-38
2021/01/24 11:17:05;;;;;;;2.53;1.45;;;;;;;1.05;48.43;94098.13;4937765;29;20126;-38
2021/01/24 11:19:32;;;;;;;3.22;1.38;;;;;;;1.23;48.21;94098.06;4946671;28;20517;-38
2021/01/24 11:21:58;;;;;;;2.80;1.50;;;;;;;1.32;48.15;94078.31;4949595;29;20528;-38
2021/01/24 11:24:25;;;;;;;3.75;1.30;;;;;;;1.37;48.19;94096.03;4956274;28;20325;-38
2021/01/24 11:26:51;;;;;;;2.95;1.23;;;;;;;1.29;48.17;94089.59;4956415;28;20082;-38
2021/01/24 11:29:18;;;;;;;2.40;1.35;;;;;;;1.63;48.12;94102.03;4954998;28;20055;-38
2021/01/24 11:31:44;;;;;;;6.63;1.23;;;;;;;1.56;47.22;94100.94;4955193;28;20055;-37
2021/01/24 11:34:11;;;;;;;3.33;1.40;;;;;;;1.54;47.32;94098.59;4954711;28;20055;-37
2021/01/24 11:36:37;;;;;;;3.47;1.35;;;;;;;2.01;46.56;94093.19;4945605;28;20055;-40
2021/01/24 11:39:05;;;;;;;4.22;2.30;;;;;;;2.29;45.36;94093.50;4950362;29;20055;-38
2021/01/24 11:41:31;;;;;;;2.50;1.15;;;;;;;1.46;46.52;94059.44;4970016;28;20537;-39
2021/01/24 11:43:58;;;;;;;2.90;1.40;;;;;;;1.45;48.00;94097.84;4966247;28;20067;-38
2021/01/24 11:46:25;;;;;;;2.60;1.08;;;;;;;1.40;47.74;94112.16;4942750;28;20167;-37
2021/01/24 11:48:52;;;;;;;2.22;1.40;;;;;;;2.31;45.67;94103.88;4954438;28;20054;-38